Time,TemperatureF,DewpointF,PressureIn,WindDirection,WindDirectionDegrees,WindSpeedMPH,WindSpeedGustMPH,Humidity,HourlyPrecipIn,Conditions,Clouds,dailyrainin,SolarRadiationWatts/m^2,SoftwareType,DateUTC
2013-02-16 00:08:00,36.8,34.0,29.93,SW,218,0.0,6.0,90,0.00,,,0.00,0,weatherlink.com 1.10,2013-02-16 05:08:00,
2013-02-16 00:23:00,36.6,34.0,29.92,SW,218,0.0,0.0,90,0.00,,,0.00,0,weatherlink.com 1.10,2013-02-16 05:23:00,
2013-02-16 00:38:00,36.1,34.0,29.93,SW,218,0.0,0.0,90,0.00,,,0.00,0,weatherlink.com 1.10,2013-02-16 05:38:00,
2013-02-16 00:54:00,35.7,33.0,29.93,SW,218,0.0,0.0,91,0.00,,,0.00,0,weatherlink.com 1.10,2013-02-16 05:54:00,
2013-02-16 01:09:00,35.4,33.0,29.92,SW,218,0.0,0.0,91,0.00,,,0.00,0,weatherlink.com 1.10,2013-02-16 06:09:00,
2013-02-16 01:24:00,35.0,33.0,29.92,SW,218,0.0,0.0,91,0.00,,,0.00,0,weatherlink.com 1.10,2013-02-16 06:24:00,
2013-02-16 01:39:00,34.6,32.0,29.93,SW,218,0.0,0.0,91,0.00,,,0.00,0,weatherlink.com 1.10,2013-02-16 06:39:00,
2013-02-16 01:54:00,34.6,33.0,29.92,SW,218,0.0,0.0,92,0.00,,,0.00,0,weatherlink.com 1.10,2013-02-16 06:54:00,
2013-02-16 02:09:00,34.5,33.0,29.91,SW,218,0.0,0.0,92,0.00,,,0.00,0,weatherlink.com 1.10,2013-02-16 07:09:00,
2013-02-16 02:24:00,34.6,33.0,29.90,SW,218,0.0,0.0,92,0.00,,,0.00,0,weatherlink.com 1.10,2013-02-16 07:24:00,
2013-02-16 02:39:00,34.4,32.0,29.92,SW,218,0.0,0.0,92,0.00,,,0.00,0,weatherlink.com 1.10,2013-02-16 07:39:00,
2013-02-16 02:54:00,34.1,32.0,29.91,SW,218,0.0,0.0,92,0.00,,,0.00,0,weatherlink.com 1.10,2013-02-16 07:54:00,
2013-02-16 03:09:00,34.3,33.0,29.90,SW,218,0.0,0.0,93,0.00,,,0.00,0,weatherlink.com 1.10,2013-02-16 08:09:00,
2013-02-16 03:24:00,34.4,33.0,29.90,SW,218,0.0,0.0,93,0.00,,,0.00,0,weatherlink.com 1.10,2013-02-16 08:24:00,
2013-02-16 03:39:00,34.7,33.0,29.91,SW,218,0.0,0.0,93,0.00,,,0.00,0,weatherlink.com 1.10,2013-02-16 08:39:00,
2013-02-16 03:54:00,35.1,33.0,29.90,SW,218,0.0,0.0,93,0.00,,,0.00,0,weatherlink.com 1.10,2013-02-16 08:54:00,
2013-02-16 04:09:00,35.2,33.0,29.91,West,281,0.0,8.0,93,0.00,,,0.00,0,weatherlink.com 1.10,2013-02-16 09:09:00,
2013-02-16 04:24:00,35.1,32.0,29.91,NNW,329,0.0,12.0,88,0.00,,,0.00,0,weatherlink.com 1.10,2013-02-16 09:24:00,
2013-02-16 04:39:00,35.3,31.0,29.91,NNW,327,8.0,12.0,83,0.00,,,0.00,0,weatherlink.com 1.10,2013-02-16 09:39:00,
2013-02-16 04:54:00,35.5,30.0,29.91,North,351,8.0,13.0,81,0.00,,,0.00,0,weatherlink.com 1.10,2013-02-16 09:54:00,
2013-02-16 05:09:00,35.5,30.0,29.91,NNW,337,10.0,13.0,80,0.00,,,0.00,0,weatherlink.com 1.10,2013-02-16 10:09:00,
2013-02-16 05:24:00,35.3,30.0,29.90,NNW,335,8.0,12.0,80,0.00,,,0.00,0,weatherlink.com 1.10,2013-02-16 10:24:00,
2013-02-16 05:39:00,35.1,30.0,29.90,NNW,334,0.0,13.0,82,0.00,,,0.00,0,weatherlink.com 1.10,2013-02-16 10:39:00,
2013-02-16 05:55:00,35.0,30.0,29.91,NNW,338,8.0,14.0,83,0.00,,,0.00,0,weatherlink.com 1.10,2013-02-16 10:55:00,
2013-02-16 06:09:00,34.8,30.0,29.91,NNW,342,8.0,14.0,84,0.00,,,0.00,0,weatherlink.com 1.10,2013-02-16 11:09:00,
2013-02-16 06:24:00,34.5,31.0,29.91,North,355,7.0,13.0,85,0.00,,,0.00,0,weatherlink.com 1.10,2013-02-16 11:24:00,
2013-02-16 06:39:00,34.3,31.0,29.91,NNW,336,6.0,15.0,86,0.00,,,0.00,0,weatherlink.com 1.10,2013-02-16 11:39:00,
2013-02-16 06:55:00,34.2,31.0,29.91,NW,321,7.0,14.0,86,0.00,,,0.00,5,weatherlink.com 1.10,2013-02-16 11:55:00,
2013-02-16 07:09:00,34.2,31.0,29.91,NNW,347,0.0,12.0,86,0.00,,,0.00,11,weatherlink.com 1.10,2013-02-16 12:09:00,
2013-02-16 07:25:00,34.2,31.0,29.91,NNW,340,1.0,10.0,86,0.00,,,0.00,19,weatherlink.com 1.10,2013-02-16 12:25:00,
2013-02-16 07:39:00,34.3,30.0,29.91,NNW,341,4.0,11.0,85,0.00,,,0.00,19,weatherlink.com 1.10,2013-02-16 12:39:00,
2013-02-16 07:54:00,34.4,30.0,29.92,NNW,327,6.0,13.0,85,0.00,,,0.00,25,weatherlink.com 1.10,2013-02-16 12:54:00,
2013-02-16 08:10:00,34.4,30.0,29.93,NW,326,9.0,12.0,85,0.00,,,0.00,54,weatherlink.com 1.10,2013-02-16 13:10:00,
2013-02-16 08:24:00,34.4,31.0,29.93,NNW,342,6.0,14.0,86,0.00,,,0.00,26,weatherlink.com 1.10,2013-02-16 13:24:00,
2013-02-16 08:39:00,34.0,31.0,29.93,NNW,334,5.0,12.0,87,0.00,,,0.00,40,weatherlink.com 1.10,2013-02-16 13:39:00,
2013-02-16 08:55:00,33.8,31.0,29.93,NNW,336,0.0,10.0,88,0.00,,,0.00,53,weatherlink.com 1.10,2013-02-16 13:55:00,
2013-02-16 09:09:00,33.8,31.0,29.93,NNW,345,7.0,11.0,89,0.00,,,0.00,88,weatherlink.com 1.10,2013-02-16 14:09:00,
2013-02-16 09:24:00,33.8,31.0,29.93,NNW,348,4.0,11.0,90,0.00,,,0.00,76,weatherlink.com 1.10,2013-02-16 14:24:00,
2013-02-16 09:40:00,33.8,32.0,29.92,North,350,8.0,11.0,91,0.01,,,0.01,77,weatherlink.com 1.10,2013-02-16 14:40:00,
2013-02-16 09:55:00,33.7,31.0,29.91,North,5,4.0,9.0,91,0.01,,,0.01,104,weatherlink.com 1.10,2013-02-16 14:55:00,
2013-02-16 10:10:00,34.0,32.0,29.91,North,5,4.0,11.0,92,0.01,,,0.01,151,weatherlink.com 1.10,2013-02-16 15:10:00,
2013-02-16 10:25:00,34.3,32.0,29.91,North,355,10.0,12.0,92,0.02,,,0.02,111,weatherlink.com 1.10,2013-02-16 15:25:00,
2013-02-16 10:40:00,34.3,32.0,29.91,NNE,17,5.0,12.0,91,0.01,,,0.02,98,weatherlink.com 1.10,2013-02-16 15:40:00,
2013-02-16 10:55:00,34.4,32.0,29.91,NNW,346,4.0,12.0,90,0.01,,,0.02,60,weatherlink.com 1.10,2013-02-16 15:55:00,
2013-02-16 11:10:00,34.3,31.0,29.91,North,355,3.0,9.0,89,0.01,,,0.02,60,weatherlink.com 1.10,2013-02-16 16:10:00,
2013-02-16 11:25:00,34.6,32.0,29.91,North,355,0.0,8.0,89,0.00,,,0.02,67,weatherlink.com 1.10,2013-02-16 16:25:00,
2013-02-16 11:40:00,34.9,32.0,29.90,North,355,0.0,9.0,88,0.00,,,0.02,83,weatherlink.com 1.10,2013-02-16 16:40:00,
2013-02-16 11:55:00,35.1,32.0,29.89,NNW,344,0.0,8.0,89,0.00,,,0.02,97,weatherlink.com 1.10,2013-02-16 16:55:00,
2013-02-16 12:10:00,35.1,32.0,29.89,NNW,344,0.0,2.0,89,0.00,,,0.02,113,weatherlink.com 1.10,2013-02-16 17:10:00,
2013-02-16 12:25:00,35.4,33.0,29.88,NNW,344,1.0,7.0,90,0.00,,,0.02,146,weatherlink.com 1.10,2013-02-16 17:25:00,
2013-02-16 12:40:00,35.3,33.0,29.88,NNW,344,0.0,5.0,90,0.00,,,0.02,156,weatherlink.com 1.10,2013-02-16 17:40:00,
2013-02-16 12:55:00,35.5,33.0,29.87,NNW,344,0.0,4.0,90,0.01,,,0.03,165,weatherlink.com 1.10,2013-02-16 17:55:00,
2013-02-16 13:10:00,35.5,33.0,29.86,North,351,0.0,6.0,89,0.01,,,0.03,121,weatherlink.com 1.10,2013-02-16 18:10:00,
2013-02-16 13:25:00,35.7,33.0,29.85,North,355,1.0,8.0,88,0.01,,,0.03,134,weatherlink.com 1.10,2013-02-16 18:25:00,
2013-02-16 13:40:00,36.1,32.0,29.85,North,355,0.0,6.0,86,0.01,,,0.03,111,weatherlink.com 1.10,2013-02-16 18:40:00,
2013-02-16 13:55:00,36.4,32.0,29.85,North,360,0.0,6.0,85,0.00,,,0.03,90,weatherlink.com 1.10,2013-02-16 18:55:00,
2013-02-16 14:10:00,36.6,32.0,29.85,North,360,0.0,5.0,83,0.00,,,0.03,100,weatherlink.com 1.10,2013-02-16 19:10:00,
2013-02-16 14:25:00,36.9,31.0,29.85,North,355,0.0,8.0,80,0.00,,,0.03,100,weatherlink.com 1.10,2013-02-16 19:25:00,
2013-02-16 14:40:00,37.0,31.0,29.84,North,11,1.0,12.0,78,0.00,,,0.03,114,weatherlink.com 1.10,2013-02-16 19:40:00,
2013-02-16 14:55:00,37.2,31.0,29.84,NNE,26,0.0,8.0,77,0.00,,,0.03,84,weatherlink.com 1.10,2013-02-16 19:55:00,
2013-02-16 15:10:00,37.4,31.0,29.83,NNE,26,0.0,3.0,78,0.00,,,0.03,84,weatherlink.com 1.10,2013-02-16 20:10:00,
2013-02-16 15:25:00,37.6,31.0,29.83,NNE,26,2.0,5.0,76,0.00,,,0.03,58,weatherlink.com 1.10,2013-02-16 20:25:00,
2013-02-16 15:40:00,38.1,30.0,29.83,NNE,26,0.0,5.0,72,0.00,,,0.03,60,weatherlink.com 1.10,2013-02-16 20:40:00,
2013-02-16 15:55:00,38.0,32.0,29.82,NNE,26,2.0,4.0,78,0.00,,,0.03,46,weatherlink.com 1.10,2013-02-16 20:55:00,
2013-02-16 16:10:00,37.4,32.0,29.82,NNE,26,0.0,3.0,82,0.00,,,0.03,40,weatherlink.com 1.10,2013-02-16 21:10:00,
2013-02-16 16:25:00,36.9,32.0,29.82,NNE,26,1.0,5.0,83,0.00,,,0.03,28,weatherlink.com 1.10,2013-02-16 21:25:00,
2013-02-16 16:40:00,36.7,33.0,29.81,NNE,26,0.0,5.0,85,0.00,,,0.03,19,weatherlink.com 1.10,2013-02-16 21:40:00,
2013-02-16 16:55:00,36.7,33.0,29.81,NNE,26,1.0,3.0,85,0.00,,,0.03,9,weatherlink.com 1.10,2013-02-16 21:55:00,
2013-02-16 17:10:00,36.7,33.0,29.81,NNE,26,0.0,0.0,85,0.00,,,0.03,0,weatherlink.com 1.10,2013-02-16 22:10:00,
2013-02-16 17:25:00,36.7,33.0,29.80,NNE,26,0.0,0.0,85,0.00,,,0.03,0,weatherlink.com 1.10,2013-02-16 22:25:00,
2013-02-16 17:40:00,36.9,33.0,29.80,NNE,26,4.0,5.0,84,0.00,,,0.03,0,weatherlink.com 1.10,2013-02-16 22:40:00,
2013-02-16 17:56:00,37.0,31.0,29.80,NNE,27,6.0,8.0,80,0.00,,,0.03,0,weatherlink.com 1.10,2013-02-16 22:56:00,
2013-02-16 18:10:00,37.4,32.0,29.81,NNE,27,5.0,6.0,80,0.00,,,0.03,0,weatherlink.com 1.10,2013-02-16 23:10:00,
2013-02-16 18:25:00,37.4,31.0,29.80,NNE,31,0.0,8.0,78,0.00,,,0.03,0,weatherlink.com 1.10,2013-02-16 23:25:00,
2013-02-16 18:40:00,37.4,31.0,29.81,NNE,31,5.0,5.0,79,0.00,,,0.03,0,weatherlink.com 1.10,2013-02-16 23:40:00,
2013-02-16 18:55:00,37.3,30.0,29.81,NNW,340,5.0,12.0,76,0.00,,,0.03,0,weatherlink.com 1.10,2013-02-16 23:55:00,
2013-02-16 19:11:00,36.8,31.0,29.81,North,9,1.0,14.0,78,0.00,,,0.03,0,weatherlink.com 1.10,2013-02-17 00:11:00,
2013-02-16 19:26:00,35.9,31.0,29.81,North,360,1.0,21.0,81,0.00,,,0.03,0,weatherlink.com 1.10,2013-02-17 00:26:00,
2013-02-16 19:40:00,35.7,30.0,29.79,NNE,17,6.0,16.0,81,0.00,,,0.03,0,weatherlink.com 1.10,2013-02-17 00:40:00,
2013-02-16 19:55:00,35.6,30.0,29.79,North,10,1.0,14.0,81,0.00,,,0.03,0,weatherlink.com 1.10,2013-02-17 00:55:00,
2013-02-16 20:10:00,35.3,30.0,29.78,North,360,8.0,9.0,81,0.00,,,0.03,0,weatherlink.com 1.10,2013-02-17 01:10:00,
2013-02-16 20:26:00,35.4,27.0,29.78,NNE,32,4.0,14.0,71,0.00,,,0.03,0,weatherlink.com 1.10,2013-02-17 01:26:00,
2013-02-16 20:41:00,35.5,25.0,29.77,North,9,5.0,16.0,67,0.00,,,0.03,0,weatherlink.com 1.10,2013-02-17 01:41:00,
2013-02-16 20:56:00,35.5,25.0,29.77,NNE,22,1.0,12.0,66,0.00,,,0.03,0,weatherlink.com 1.10,2013-02-17 01:56:00,
2013-02-16 21:11:00,35.4,24.0,29.77,North,360,2.0,13.0,64,0.00,,,0.03,0,weatherlink.com 1.10,2013-02-17 02:11:00,
2013-02-16 21:26:00,35.0,24.0,29.76,NNW,331,0.0,14.0,64,0.00,,,0.03,0,weatherlink.com 1.10,2013-02-17 02:26:00,
2013-02-16 21:41:00,34.7,23.0,29.77,North,350,1.0,11.0,63,0.00,,,0.03,0,weatherlink.com 1.10,2013-02-17 02:41:00,
2013-02-16 21:56:00,34.4,23.0,29.76,North,5,7.0,10.0,63,0.00,,,0.03,0,weatherlink.com 1.10,2013-02-17 02:56:00,
2013-02-16 22:11:00,34.1,23.0,29.76,NNE,19,5.0,16.0,63,0.00,,,0.03,0,weatherlink.com 1.10,2013-02-17 03:11:00,
2013-02-16 22:26:00,33.9,22.0,29.75,NNW,345,7.0,14.0,62,0.00,,,0.03,0,weatherlink.com 1.10,2013-02-17 03:26:00,
2013-02-16 22:41:00,33.7,23.0,29.73,North,5,6.0,12.0,64,0.00,,,0.03,0,weatherlink.com 1.10,2013-02-17 03:41:00,
2013-02-16 22:56:00,33.7,23.0,29.72,North,355,7.0,12.0,65,0.00,,,0.03,0,weatherlink.com 1.10,2013-02-17 03:56:00,
2013-02-16 23:11:00,33.5,23.0,29.71,North,360,4.0,12.0,66,0.00,,,0.03,0,weatherlink.com 1.10,2013-02-17 04:11:00,
2013-02-16 23:26:00,33.4,23.0,29.71,NNE,20,2.0,13.0,66,0.00,,,0.03,0,weatherlink.com 1.10,2013-02-17 04:26:00,
2013-02-16 23:41:00,33.3,23.0,29.70,NNE,12,12.0,14.0,67,0.00,,,0.03,0,weatherlink.com 1.10,2013-02-17 04:41:00,
2013-02-16 23:56:00,33.3,23.0,29.69,NNE,28,11.0,27.0,65,0.00,,,0.03,0,weatherlink.com 1.10,2013-02-17 04:56:00,